Time;durP1;ratioP1;P1;durP2;ratioP2;P2;SDS_P1;SDS_P2;PMS_P1;PMS_P2;Temp;Humidity;BMP_temperature;BMP_pressure;BME280_temperature;BME280_humidity;BME280_pressure;Samples;Min_cycle;Max_cycle;Signal;HPM_P1;HPM_P2
2022/07/01 00:00:10;;;;;;;0.40;0.40;;;22.90;99.90;;;;;;5094507;28;20591;-71
2022/07/01 00:03:00;;;;;;;0.40;0.40;;;22.90;99.90;;;;;;5084493;28;20230;-71
2022/07/01 00:05:48;;;;;;;0.40;0.40;;;22.90;99.90;;;;;;5093688;28;20203;-72
2022/07/01 00:08:37;;;;;;;0.40;0.40;;;22.80;99.90;;;;;;5093388;28;20200;-70
2022/07/01 00:11:25;;;;;;;0.40;0.40;;;22.80;99.90;;;;;;5092448;28;20239;-71
2022/07/01 00:14:16;;;;;;;0.45;0.45;;;22.80;99.90;;;;;;5093509;28;20208;-72
2022/07/01 00:17:04;;;;;;;0.40;0.40;;;22.80;99.90;;;;;;5093196;28;20200;-72
2022/07/01 00:19:54;;;;;;;0.50;0.50;;;22.70;99.90;;;;;;5093009;28;20552;-70
2022/07/01 00:22:42;;;;;;;0.40;0.40;;;22.70;99.90;;;;;;5093024;28;20606;-73
2022/07/01 00:25:30;;;;;;;0.40;0.40;;;22.60;99.90;;;;;;5092108;28;20211;-72
2022/07/01 00:28:18;;;;;;;0.40;0.40;;;22.60;99.90;;;;;;5092972;28;20196;-71
2022/07/01 00:31:07;;;;;;;0.40;0.40;;;22.50;99.90;;;;;;5092390;28;20227;-71
2022/07/01 00:33:55;;;;;;;0.40;0.40;;;22.50;99.90;;;;;;5093216;28;20223;-69
2022/07/01 00:36:44;;;;;;;0.60;0.60;;;22.50;99.90;;;;;;5090761;28;20220;-69
2022/07/01 00:39:34;;;;;;;0.40;0.40;;;22.40;99.90;;;;;;5091251;28;20204;-70
2022/07/01 00:42:22;;;;;;;0.40;0.40;;;22.30;99.90;;;;;;5091475;28;20306;-69
2022/07/01 00:45:11;;;;;;;0.40;0.40;;;22.40;99.90;;;;;;5092420;28;20200;-71
2022/07/01 00:48:00;;;;;;;2.58;2.38;;;22.30;99.90;;;;;;5091546;28;20204;-70
2022/07/01 00:50:49;;;;;;;0.50;0.50;;;22.30;99.90;;;;;;5091500;28;20223;-72
2022/07/01 00:53:38;;;;;;;0.40;0.40;;;22.30;99.90;;;;;;5091900;28;20203;-73
2022/07/01 00:56:26;;;;;;;0.40;0.40;;;22.30;99.90;;;;;;5091879;28;20235;-69
2022/07/01 00:59:15;;;;;;;0.50;0.50;;;22.20;99.90;;;;;;5091082;28;20192;-71
2022/07/01 01:02:05;;;;;;;0.40;0.40;;;22.20;99.90;;;;;;5091489;28;20219;-72
2022/07/01 01:04:53;;;;;;;0.40;0.40;;;22.20;99.90;;;;;;5091816;28;20211;-71
2022/07/01 01:07:41;;;;;;;0.40;0.40;;;22.20;99.90;;;;;;5091280;28;20204;-70
2022/07/01 01:10:31;;;;;;;0.40;0.40;;;22.10;99.90;;;;;;5091381;28;20200;-72
2022/07/01 01:13:20;;;;;;;0.40;0.40;;;22.10;99.90;;;;;;5091322;28;20552;-70
2022/07/01 01:16:08;;;;;;;0.40;0.40;;;22.00;99.90;;;;;;5091409;28;20212;-71
2022/07/01 01:18:56;;;;;;;1.25;1.08;;;22.00;99.90;;;;;;5091037;28;20281;-72
2022/07/01 01:21:46;;;;;;;0.50;0.50;;;22.00;99.90;;;;;;5091040;28;20220;-71
2022/07/01 01:24:36;;;;;;;0.40;0.40;;;22.00;99.90;;;;;;5092623;28;20196;-70
2022/07/01 01:27:24;;;;;;;0.40;0.40;;;21.90;99.90;;;;;;5090755;28;20200;-71
2022/07/01 01:30:13;;;;;;;0.40;0.40;;;22.00;99.90;;;;;;5091191;28;20211;-71
2022/07/01 01:33:01;;;;;;;0.40;0.40;;;21.90;99.90;;;;;;5082454;28;20204;-71
2022/07/01 01:35:49;;;;;;;0.40;0.40;;;21.90;99.90;;;;;;5091866;28;20215;-72
2022/07/01 01:38:39;;;;;;;0.40;0.40;;;21.90;99.90;;;;;;5091715;28;20207;-72
2022/07/01 01:41:27;;;;;;;0.77;0.77;;;21.90;99.90;;;;;;5091254;28;20220;-71
2022/07/01 01:44:15;;;;;;;0.40;0.40;;;21.90;99.90;;;;;;5087954;28;20200;-71
2022/07/01 01:47:04;;;;;;;0.40;0.40;;;21.80;99.90;;;;;;5090346;28;20207;-71
2022/07/01 01:49:52;;;;;;;0.40;0.40;;;21.80;99.90;;;;;;5096187;28;20227;-72
2022/07/01 01:52:43;;;;;;;0.40;0.40;;;21.80;99.90;;;;;;5090814;28;20224;-72
2022/07/01 01:55:32;;;;;;;0.40;0.40;;;21.70;99.90;;;;;;5091003;28;20203;-70
2022/07/01 01:58:21;;;;;;;0.50;0.50;;;21.70;99.90;;;;;;5090985;28;20582;-70
2022/07/01 02:01:09;;;;;;;0.40;0.40;;;21.70;99.90;;;;;;5090182;28;20212;-73
2022/07/01 02:03:58;;;;;;;0.75;0.75;;;21.70;99.90;;;;;;5091475;28;20207;-74
2022/07/01 02:06:47;;;;;;;0.40;0.40;;;21.60;99.90;;;;;;5097694;28;20196;-71
2022/07/01 02:09:35;;;;;;;0.40;0.40;;;21.60;99.90;;;;;;5101522;28;20192;-71
2022/07/01 02:12:25;;;;;;;0.45;0.45;;;21.60;99.90;;;;;;5099669;28;20265;-72
2022/07/01 02:15:13;;;;;;;0.40;0.40;;;21.60;99.90;;;;;;5101222;28;20207;-71
2022/07/01 02:18:01;;;;;;;0.40;0.40;;;21.50;99.90;;;;;;5083785;28;20204;-72
2022/07/01 02:20:49;;;;;;;0.40;0.40;;;21.50;99.90;;;;;;5101302;28;20261;-71
2022/07/01 02:23:37;;;;;;;0.40;0.40;;;21.50;99.90;;;;;;5100950;28;20203;-71
2022/07/01 02:26:25;;;;;;;0.60;0.60;;;21.50;99.90;;;;;;5099749;28;20214;-72
2022/07/01 02:29:15;;;;;;;0.50;0.50;;;21.40;99.90;;;;;;5100859;28;20204;-71
2022/07/01 02:32:04;;;;;;;0.47;0.47;;;21.40;99.90;;;;;;5096764;28;20243;-73
2022/07/01 02:34:52;;;;;;;0.50;0.50;;;21.30;99.90;;;;;;5090160;28;20200;-73
2022/07/01 02:37:40;;;;;;;0.40;0.40;;;21.30;99.90;;;;;;5090252;28;20228;-72
2022/07/01 02:40:28;;;;;;;0.40;0.40;;;21.30;99.90;;;;;;5090505;28;20203;-72
2022/07/01 02:43:16;;;;;;;0.40;0.40;;;21.30;99.90;;;;;;5090510;28;20276;-74
2022/07/01 02:46:06;;;;;;;0.50;0.50;;;21.30;99.90;;;;;;5093935;28;20676;-72
2022/07/01 02:48:54;;;;;;;0.40;0.40;;;21.30;99.90;;;;;;5094372;28;20192;-72
2022/07/01 02:51:42;;;;;;;0.68;0.68;;;21.30;99.90;;;;;;5094185;28;20220;-73
2022/07/01 02:54:30;;;;;;;0.40;0.40;;;21.30;99.90;;;;;;5093971;28;20210;-74
2022/07/01 02:57:18;;;;;;;0.40;0.40;;;21.30;99.90;;;;;;5094193;28;20220;-72
2022/07/01 03:00:08;;;;;;;0.40;0.40;;;21.30;99.90;;;;;;5093948;28;20200;-74
2022/07/01 03:02:58;;;;;;;0.50;0.50;;;21.30;99.90;;;;;;5093649;28;20208;-72
2022/07/01 03:05:48;;;;;;;0.40;0.40;;;21.30;99.90;;;;;;5094065;28;20249;-72
2022/07/01 03:08:37;;;;;;;0.40;0.40;;;21.30;99.90;;;;;;5093966;28;20196;-72
2022/07/01 03:11:25;;;;;;;0.50;0.50;;;21.30;99.90;;;;;;5092455;28;20224;-73
2022/07/01 03:14:13;;;;;;;0.40;0.40;;;21.30;99.90;;;;;;5093571;28;20200;-73
2022/07/01 03:17:01;;;;;;;0.40;0.40;;;21.30;99.90;;;;;;5093849;28;20216;-72
2022/07/01 03:19:52;;;;;;;0.40;0.40;;;21.30;99.90;;;;;;5093332;28;20585;-71
2022/07/01 03:22:43;;;;;;;0.40;0.40;;;21.30;99.90;;;;;;5092869;28;20228;-72
2022/07/01 03:25:31;;;;;;;0.40;0.40;;;21.30;99.90;;;;;;5093666;28;20199;-74
2022/07/01 03:28:21;;;;;;;0.40;0.40;;;21.30;99.90;;;;;;5093703;28;20573;-73
2022/07/01 03:31:09;;;;;;;0.40;0.40;;;21.30;99.90;;;;;;5093122;28;20605;-71
2022/07/01 03:33:57;;;;;;;0.40;0.40;;;21.30;99.90;;;;;;5093798;28;20196;-70
2022/07/01 03:36:47;;;;;;;0.40;0.40;;;21.30;99.90;;;;;;5093528;28;20227;-73
2022/07/01 03:39:37;;;;;;;0.40;0.40;;;21.30;99.90;;;;;;5093263;28;20199;-73
2022/07/01 03:42:25;;;;;;;0.40;0.40;;;21.40;99.90;;;;;;5092547;28;20219;-73
2022/07/01 03:45:13;;;;;;;0.40;0.40;;;21.40;99.90;;;;;;5092295;28;20208;-72
2022/07/01 03:48:02;;;;;;;0.50;0.50;;;21.40;99.90;;;;;;5102419;28;20192;-70
2022/07/01 03:50:50;;;;;;;0.40;0.40;;;21.40;99.90;;;;;;5092897;28;20220;-70
2022/07/01 03:56:57;;;;;;;0.40;0.40;;;21.60;99.90;;;;;;5048885;28;20213;-70
2022/07/01 03:59:46;;;;;;;0.40;0.40;;;21.60;99.90;;;;;;5093240;28;20204;-70
2022/07/01 04:02:34;;;;;;;0.40;0.40;;;21.60;99.90;;;;;;5092925;28;20227;-72
2022/07/01 04:05:22;;;;;;;0.40;0.40;;;21.60;99.90;;;;;;5092081;28;20196;-71
2022/07/01 04:08:11;;;;;;;0.50;0.50;;;21.70;99.90;;;;;;5093350;28;20223;-71
2022/07/01 04:11:01;;;;;;;0.40;0.40;;;21.70;99.90;;;;;;5092684;28;20227;-71
2022/07/01 04:13:50;;;;;;;0.40;0.40;;;21.70;99.90;;;;;;5093301;28;20215;-72
2022/07/01 04:16:39;;;;;;;0.40;0.40;;;21.80;99.90;;;;;;5092789;28;20699;-70
2022/07/01 04:19:27;;;;;;;0.40;0.40;;;21.90;99.90;;;;;;5093563;28;20320;-70
2022/07/01 04:22:32;;;;;;;0.40;0.40;;;22.10;99.90;;;;;;5093653;28;20618;-70
2022/07/01 04:25:21;;;;;;;0.40;0.40;;;22.30;99.90;;;;;;5094248;28;20677;-69
2022/07/01 04:28:10;;;;;;;0.40;0.40;;;22.70;99.90;;;;;;5093386;28;20573;-71
2022/07/01 04:30:59;;;;;;;0.40;0.40;;;22.80;99.90;;;;;;5093209;28;20224;-70
2022/07/01 04:33:48;;;;;;;1.05;1.02;;;23.00;99.90;;;;;;5094200;28;20199;-72
2022/07/01 04:36:36;;;;;;;0.40;0.40;;;23.20;99.90;;;;;;5088269;28;20711;-70
2022/07/01 04:39:25;;;;;;;0.50;0.50;;;23.30;99.90;;;;;;5082972;28;20223;-70
2022/07/01 04:42:14;;;;;;;0.40;0.40;;;23.30;99.90;;;;;;5093253;28;20215;-72
2022/07/01 04:45:06;;;;;;;0.40;0.40;;;23.30;99.90;;;;;;5085001;28;20208;-70
2022/07/01 04:47:54;;;;;;;0.40;0.40;;;23.30;99.90;;;;;;5093477;28;20227;-72
2022/07/01 04:50:42;;;;;;;0.40;0.40;;;23.30;99.90;;;;;;5094804;28;20227;-72
2022/07/01 04:53:32;;;;;;;0.40;0.40;;;23.30;99.90;;;;;;5094061;28;20225;-70
2022/07/01 04:56:21;;;;;;;0.60;0.60;;;23.30;99.90;;;;;;5092947;28;20199;-70
2022/07/01 04:59:09;;;;;;;0.50;0.50;;;23.30;99.90;;;;;;5094019;28;20220;-73
2022/07/01 05:01:59;;;;;;;0.57;0.57;;;23.20;99.90;;;;;;5093541;28;20222;-73
2022/07/01 05:04:47;;;;;;;0.40;0.40;;;23.20;99.90;;;;;;5092480;28;20591;-69
2022/07/01 05:07:35;;;;;;;0.40;0.40;;;23.10;99.90;;;;;;5092883;28;20200;-70
2022/07/01 05:10:24;;;;;;;1.35;0.63;;;23.10;99.90;;;;;;5092171;28;20246;-69
2022/07/01 05:13:12;;;;;;;1.48;1.38;;;23.00;99.90;;;;;;5093435;28;20196;-70
2022/07/01 05:16:00;;;;;;;0.95;0.95;;;22.90;99.90;;;;;;5093237;28;20676;-70
2022/07/01 05:21:59;;;;;;;0.40;0.40;;;22.90;99.90;;;;;;5093987;28;20218;-70
2022/07/01 05:24:48;;;;;;;0.88;0.88;;;22.90;99.90;;;;;;5093590;28;20282;-70
2022/07/01 05:27:36;;;;;;;0.40;0.40;;;23.10;99.90;;;;;;5092437;28;20196;-71
2022/07/01 05:30:24;;;;;;;0.40;0.40;;;23.20;99.90;;;;;;5092202;28;20685;-70
2022/07/01 05:33:12;;;;;;;3.00;1.75;;;23.30;99.90;;;;;;5088203;28;20211;-70
2022/07/01 05:36:02;;;;;;;1.90;1.77;;;23.30;99.90;;;;;;5093432;28;20199;-69
2022/07/01 05:38:50;;;;;;;7.88;2.85;;;23.40;99.90;;;;;;5092155;28;20218;-70
2022/07/01 05:41:38;;;;;;;1.85;1.63;;;23.50;99.90;;;;;;5092412;28;20216;-70
2022/07/01 05:44:27;;;;;;;0.93;0.93;;;23.60;99.90;;;;;;5092926;28;20203;-70
2022/07/01 05:47:15;;;;;;;1.20;1.20;;;23.80;99.90;;;;;;5094458;28;20204;-69
2022/07/01 05:50:03;;;;;;;0.50;0.50;;;23.80;99.90;;;;;;5094514;28;20245;-71
2022/07/01 05:52:53;;;;;;;0.40;0.40;;;23.90;99.90;;;;;;5092246;28;20204;-70
2022/07/01 05:55:41;;;;;;;0.40;0.40;;;24.00;99.90;;;;;;5092088;28;20204;-71
2022/07/01 05:58:30;;;;;;;0.40;0.40;;;24.10;99.90;;;;;;5090685;28;20719;-71
2022/07/01 06:01:18;;;;;;;0.57;0.57;;;24.20;99.90;;;;;;5079726;28;20281;-71
2022/07/01 06:04:06;;;;;;;0.75;0.75;;;24.10;99.90;;;;;;5082724;28;20598;-72
2022/07/01 06:06:55;;;;;;;0.50;0.50;;;23.80;99.90;;;;;;5092498;28;20200;-71
2022/07/01 06:09:45;;;;;;;0.40;0.40;;;23.70;99.90;;;;;;5092022;28;20192;-70
2022/07/01 06:12:33;;;;;;;0.80;0.70;;;23.70;99.90;;;;;;5092449;28;20228;-71
2022/07/01 06:15:22;;;;;;;1.42;1.33;;;23.80;99.90;;;;;;5092095;28;20211;-72
2022/07/01 06:18:10;;;;;;;0.50;0.50;;;23.80;99.90;;;;;;5091860;28;20719;-71
2022/07/01 06:20:58;;;;;;;0.40;0.40;;;23.80;99.90;;;;;;5083449;28;20772;-70
2022/07/01 06:23:46;;;;;;;0.50;0.50;;;23.80;99.90;;;;;;5076827;28;20204;-69
2022/07/01 06:26:36;;;;;;;0.40;0.40;;;23.80;99.90;;;;;;5075460;28;20215;-72
2022/07/01 06:29:24;;;;;;;0.50;0.50;;;23.90;99.90;;;;;;5076077;28;20693;-70
2022/07/01 06:32:13;;;;;;;0.52;0.52;;;24.10;99.90;;;;;;5075199;28;20229;-71
2022/07/01 06:35:01;;;;;;;0.40;0.40;;;24.20;99.90;;;;;;5076037;28;20200;-70
2022/07/01 06:37:49;;;;;;;0.82;0.82;;;24.20;99.90;;;;;;5075693;28;20204;-71
2022/07/01 06:41:26;;;;;;;2.13;1.75;;;24.20;99.90;;;;;;5075804;28;20280;-71
2022/07/01 06:43:53;;;;;;;1.40;1.13;;;24.40;99.90;;;;;;5076032;28;20208;-71
2022/07/01 06:46:41;;;;;;;1.33;0.60;;;24.50;99.90;;;;;;5075590;28;20204;-70
2022/07/01 06:49:29;;;;;;;1.67;1.58;;;24.50;99.90;;;;;;5075732;28;20212;-71
2022/07/01 06:52:18;;;;;;;4.35;1.88;;;24.20;99.90;;;;;;5076231;28;20217;-71
2022/07/01 06:55:06;;;;;;;1.75;1.65;;;24.50;99.90;;;;;;5075587;28;20433;-72
2022/07/01 06:57:55;;;;;;;0.40;0.40;;;24.60;99.90;;;;;;5075842;28;20203;-71
2022/07/01 07:00:44;;;;;;;7.30;3.85;;;24.80;99.90;;;;;;5075397;28;20225;-72
2022/07/01 07:03:33;;;;;;;0.50;0.50;;;25.00;99.90;;;;;;5075348;28;20571;-71
2022/07/01 07:06:21;;;;;;;0.70;0.70;;;25.10;99.90;;;;;;5075061;28;20197;-69
2022/07/01 07:09:09;;;;;;;1.42;1.40;;;25.20;99.90;;;;;;5074709;28;20203;-72
2022/07/01 07:11:58;;;;;;;0.70;0.70;;;25.20;99.90;;;;;;5081606;28;20227;-71
2022/07/01 07:14:46;;;;;;;0.43;0.43;;;25.30;99.90;;;;;;5094671;28;20680;-71
2022/07/01 07:17:36;;;;;;;0.40;0.40;;;25.30;99.90;;;;;;5093902;28;20742;-71
2022/07/01 07:20:28;;;;;;;1.08;0.98;;;25.40;99.90;;;;;;5093831;28;20610;-70
2022/07/01 07:23:20;;;;;;;2.63;1.10;;;25.30;99.90;;;;;;5088620;28;20214;-71
2022/07/01 07:26:10;;;;;;;0.70;0.70;;;25.00;99.90;;;;;;5094127;28;20204;-69
2022/07/01 07:28:58;;;;;;;2.42;1.95;;;25.10;99.90;;;;;;5094638;28;20222;-70
2022/07/01 07:31:46;;;;;;;0.60;0.60;;;25.30;99.90;;;;;;5094110;28;20223;-72
2022/07/01 07:34:37;;;;;;;1.98;1.58;;;25.60;99.90;;;;;;5092654;28;20332;-69
2022/07/01 07:37:27;;;;;;;0.88;0.57;;;25.80;99.90;;;;;;5111020;28;20556;-70
2022/07/01 07:40:18;;;;;;;1.00;1.00;;;25.80;99.90;;;;;;5114889;28;20219;-72
2022/07/01 07:43:07;;;;;;;0.40;0.40;;;26.00;99.90;;;;;;5113522;28;20225;-70
2022/07/01 07:45:55;;;;;;;1.35;0.90;;;26.20;99.90;;;;;;5113149;28;20672;-71
2022/07/01 07:48:43;;;;;;;1.17;1.17;;;26.30;99.90;;;;;;5119706;28;20201;-69
2022/07/01 07:51:33;;;;;;;0.50;0.50;;;26.30;99.90;;;;;;5114407;28;20296;-69
2022/07/01 07:54:21;;;;;;;2.25;2.15;;;26.30;99.90;;;;;;5113120;28;20202;-70
2022/07/01 07:57:10;;;;;;;0.82;0.73;;;26.40;99.90;;;;;;5102304;28;20199;-69
2022/07/01 07:59:58;;;;;;;3.15;1.90;;;26.50;99.90;;;;;;5093672;28;20216;-69
2022/07/01 08:02:47;;;;;;;0.40;0.40;;;26.40;99.90;;;;;;5093321;28;20358;-70
2022/07/01 08:05:36;;;;;;;0.90;0.90;;;26.30;99.90;;;;;;5094015;28;20245;-71
2022/07/01 08:08:27;;;;;;;0.50;0.50;;;26.40;99.90;;;;;;5093731;28;20231;-71
2022/07/01 08:11:15;;;;;;;0.82;0.82;;;26.30;99.90;;;;;;5093616;28;20596;-71
2022/07/01 08:14:03;;;;;;;0.65;0.65;;;26.20;99.90;;;;;;5093836;28;20204;-71
2022/07/01 08:16:51;;;;;;;1.75;0.80;;;26.10;99.90;;;;;;5094736;28;20223;-71
2022/07/01 08:19:40;;;;;;;0.63;0.63;;;25.80;99.90;;;;;;5093974;28;20577;-71
2022/07/01 08:22:28;;;;;;;0.90;0.90;;;25.90;99.90;;;;;;5093230;28;20212;-73
2022/07/01 08:25:18;;;;;;;0.50;0.45;;;26.00;99.90;;;;;;5094460;28;20623;-72
2022/07/01 08:28:06;;;;;;;0.40;0.40;;;26.10;99.90;;;;;;5094427;28;20203;-69
2022/07/01 08:30:55;;;;;;;2.15;1.85;;;26.30;99.90;;;;;;5092537;28;20228;-71
2022/07/01 08:33:43;;;;;;;1.15;0.88;;;26.50;99.90;;;;;;5093453;28;20576;-73
2022/07/01 08:36:31;;;;;;;0.80;0.80;;;26.40;99.90;;;;;;5093990;28;20681;-72
2022/07/01 08:39:19;;;;;;;0.90;0.90;;;26.10;99.90;;;;;;5073439;28;20224;-71
2022/07/01 08:42:09;;;;;;;1.20;1.20;;;25.70;99.90;;;;;;5072537;28;20220;-69
2022/07/01 08:44:58;;;;;;;0.60;0.60;;;25.30;99.90;;;;;;5073679;28;20571;-72
2022/07/01 08:47:57;;;;;;;0.40;0.40;;;25.10;99.90;;;;;;5081948;28;20215;-71
2022/07/01 08:50:45;;;;;;;0.75;0.75;;;25.00;99.90;;;;;;5093335;28;20708;-70
2022/07/01 08:53:33;;;;;;;0.50;0.50;;;24.30;99.90;;;;;;5093004;28;20685;-73
2022/07/01 08:59:37;;;;;;;0.60;0.60;;;23.10;99.90;;;;;;5031710;28;20228;-72
2022/07/01 09:02:27;;;;;;;1.52;0.88;;;22.50;99.90;;;;;;5084869;28;20226;-72
2022/07/01 09:05:16;;;;;;;0.47;0.47;;;22.10;99.90;;;;;;5091248;28;20333;-73
2022/07/01 09:08:07;;;;;;;1.95;1.75;;;21.60;99.90;;;;;;5090346;28;20275;-73
2022/07/01 09:10:56;;;;;;;1.27;0.88;;;21.00;99.90;;;;;;5090789;28;20216;-73
2022/07/01 09:13:45;;;;;;;2.55;2.38;;;20.00;99.90;;;;;;5093668;28;20196;-74
2022/07/01 09:16:40;;;;;;;5.88;1.85;;;19.10;99.90;;;;;;5093243;28;20203;-77
2022/07/01 09:19:32;;;;;;;1.42;1.33;;;18.60;99.90;;;;;;5098989;28;20680;-77
2022/07/01 09:22:20;;;;;;;1.70;1.33;;;18.20;99.90;;;;;;5096464;28;20936;-76
2022/07/01 09:25:15;;;;;;;0.98;0.68;;;18.10;99.90;;;;;;5096206;28;20204;-76
2022/07/01 09:28:08;;;;;;;0.50;0.50;;;18.10;99.90;;;;;;5096846;28;20211;-74
2022/07/01 09:30:59;;;;;;;0.80;0.70;;;18.10;99.90;;;;;;5092555;28;20228;-74
2022/07/01 09:34:03;;;;;;;0.65;0.65;;;18.10;99.90;;;;;;5093376;28;20582;-74
2022/07/01 09:36:57;;;;;;;0.90;0.90;;;18.00;99.90;;;;;;5095287;28;20246;-76
2022/07/01 09:39:47;;;;;;;1.35;1.25;;;17.80;99.90;;;;;;5092235;28;20218;-74
2022/07/01 09:42:45;;;;;;;3.28;2.63;;;17.80;99.90;;;;;;5093458;28;20223;-74
2022/07/01 09:45:35;;;;;;;0.50;0.50;;;17.60;99.90;;;;;;5093775;28;20196;-74
2022/07/01 09:48:26;;;;;;;0.50;0.50;;;17.50;99.90;;;;;;5096955;28;20237;-75
2022/07/01 09:51:16;;;;;;;0.93;0.93;;;17.50;99.90;;;;;;5094033;28;20216;-75
2022/07/01 09:54:05;;;;;;;1.38;1.27;;;17.50;99.90;;;;;;5095517;28;20196;-76
2022/07/01 09:56:53;;;;;;;0.70;0.70;;;17.40;99.90;;;;;;5098936;28;20188;-75
2022/07/01 09:59:41;;;;;;;1.73;1.63;;;17.30;99.90;;;;;;5097474;28;20208;-75
2022/07/01 10:02:30;;;;;;;0.60;0.50;;;17.30;99.90;;;;;;5098737;28;20305;-75
2022/07/01 10:05:24;;;;;;;0.50;0.50;;;17.20;99.90;;;;;;5097802;28;20277;-76
2022/07/01 10:08:46;;;;;;;9.17;2.30;;;17.20;99.90;;;;;;5099662;28;20195;-75
2022/07/01 10:12:09;;;;;;;0.40;0.40;;;17.20;99.90;;;;;;5097161;28;20688;-73
2022/07/01 10:14:59;;;;;;;0.50;0.50;;;16.90;99.90;;;;;;5093734;28;20680;-73
2022/07/01 10:17:51;;;;;;;0.80;0.70;;;17.00;99.90;;;;;;5095775;28;20198;-74
2022/07/01 10:20:39;;;;;;;1.00;1.00;;;17.00;99.90;;;;;;5096635;28;20487;-73
2022/07/01 10:23:39;;;;;;;0.50;0.50;;;17.00;99.90;;;;;;5095974;28;20287;-71
2022/07/01 10:26:30;;;;;;;0.50;0.50;;;17.00;99.90;;;;;;5095814;28;20672;-73
2022/07/01 10:29:30;;;;;;;0.80;0.80;;;16.90;99.90;;;;;;5095060;28;20199;-72
2022/07/01 10:32:28;;;;;;;0.83;0.83;;;16.90;99.90;;;;;;5095054;28;20236;-72
2022/07/01 10:35:38;;;;;;;0.50;0.50;;;17.10;99.90;;;;;;5094987;28;20260;-72
2022/07/01 10:38:26;;;;;;;0.50;0.50;;;16.90;99.90;;;;;;5095061;28;20599;-71
2022/07/01 10:41:25;;;;;;;0.60;0.60;;;17.00;99.90;;;;;;5094488;28;20223;-71
2022/07/01 10:44:15;;;;;;;0.60;0.60;;;16.90;99.90;;;;;;5094662;28;20283;-73
2022/07/01 10:47:07;;;;;;;0.60;0.60;;;16.80;99.90;;;;;;5095318;28;20192;-72
2022/07/01 10:50:00;;;;;;;2.33;1.47;;;16.80;99.90;;;;;;5095906;28;20437;-74
2022/07/01 10:53:02;;;;;;;0.50;0.50;;;16.70;99.90;;;;;;5094336;28;20200;-73
2022/07/01 10:55:52;;;;;;;0.40;0.40;;;16.70;99.90;;;;;;5094932;28;20207;-74
2022/07/01 10:58:47;;;;;;;0.70;0.70;;;16.60;99.90;;;;;;5083912;28;20677;-73
2022/07/01 11:01:37;;;;;;;0.50;0.50;;;16.60;99.90;;;;;;5094788;28;20227;-72
2022/07/01 11:04:25;;;;;;;0.77;0.77;;;16.60;99.90;;;;;;5096523;28;20471;-72
2022/07/01 11:07:13;;;;;;;3.07;0.80;;;16.60;99.90;;;;;;5094759;28;20433;-71
2022/07/01 11:10:03;;;;;;;5.07;1.20;;;16.40;99.90;;;;;;5093715;28;20564;-70
2022/07/01 11:12:51;;;;;;;0.70;0.70;;;16.20;99.90;;;;;;5093633;28;20442;-71
2022/07/01 11:15:41;;;;;;;1.23;1.13;;;16.20;99.90;;;;;;5094743;28;20570;-71
2022/07/01 11:18:31;;;;;;;0.90;0.90;;;16.50;99.90;;;;;;5094088;28;20346;-71
2022/07/01 11:21:19;;;;;;;0.57;0.57;;;16.60;99.90;;;;;;5093726;28;20446;-70
2022/07/01 11:24:09;;;;;;;0.40;0.40;;;16.60;99.90;;;;;;5095517;28;20429;-70
2022/07/01 11:27:06;;;;;;;0.60;0.50;;;16.70;99.90;;;;;;5094224;28;20199;-71
2022/07/01 11:29:56;;;;;;;0.40;0.40;;;16.80;99.90;;;;;;5094689;28;20199;-70
2022/07/01 11:32:47;;;;;;;0.67;0.50;;;16.90;99.90;;;;;;5094881;28;20442;-71
2022/07/01 11:41:57;;;;;;;1.23;0.93;;;16.80;99.90;;;;;;5094728;28;20216;-71
2022/07/01 11:44:45;;;;;;;0.70;0.70;;;17.00;99.90;;;;;;5095492;28;20203;-72
2022/07/01 11:47:33;;;;;;;0.57;0.50;;;17.00;99.90;;;;;;5098324;28;20203;-71
2022/07/01 11:50:23;;;;;;;0.60;0.60;;;17.20;99.90;;;;;;5098300;28;20253;-71
2022/07/01 11:53:12;;;;;;;0.60;0.50;;;17.20;99.90;;;;;;5094957;28;20196;-71
2022/07/01 11:56:00;;;;;;;0.70;0.70;;;17.40;99.90;;;;;;5087130;28;20215;-72
2022/07/01 11:58:50;;;;;;;0.60;0.50;;;17.50;99.90;;;;;;5073798;28;20197;-72
2022/07/01 12:01:39;;;;;;;0.60;0.55;;;17.60;99.90;;;;;;5089502;28;20227;-76
2022/07/01 12:04:30;;;;;;;0.60;0.60;;;17.80;99.90;;;;;;5088595;28;20204;-71
2022/07/01 12:07:22;;;;;;;0.70;0.70;;;17.80;99.90;;;;;;5088559;27;20205;-72
2022/07/01 12:10:10;;;;;;;0.88;0.88;;;17.90;99.90;;;;;;5090410;28;20211;-72
2022/07/01 12:12:59;;;;;;;1.75;1.30;;;18.00;99.90;;;;;;5107894;27;20253;-73
2022/07/01 12:15:47;;;;;;;0.40;0.40;;;17.80;99.90;;;;;;5109183;28;20267;-74
2022/07/01 12:18:35;;;;;;;1.20;1.10;;;17.70;99.90;;;;;;5108649;28;20196;-76
2022/07/01 12:21:25;;;;;;;3.22;0.80;;;17.60;99.90;;;;;;5104741;28;20226;-72
2022/07/01 12:24:17;;;;;;;0.95;0.82;;;17.50;99.90;;;;;;5103082;28;20200;-74
2022/07/01 12:27:07;;;;;;;2.33;0.93;;;17.80;99.90;;;;;;5101869;28;20207;-76
2022/07/01 12:29:56;;;;;;;1.10;0.82;;;18.20;99.90;;;;;;5093639;28;20200;-79
2022/07/01 12:32:44;;;;;;;2.55;1.27;;;18.40;99.90;;;;;;5092701;28;20227;-75
2022/07/01 12:35:36;;;;;;;1.75;0.57;;;18.40;99.90;;;;;;5092102;28;20200;-77
2022/07/01 12:38:25;;;;;;;2.90;0.65;;;18.20;99.90;;;;;;5091925;28;20673;-75
2022/07/01 12:41:29;;;;;;;0.60;0.60;;;18.20;99.90;;;;;;5091717;28;20223;-77
2022/07/01 12:44:28;;;;;;;1.30;1.00;;;18.30;99.90;;;;;;5092683;28;20257;-76
2022/07/01 12:47:26;;;;;;;1.15;1.15;;;17.90;99.90;;;;;;5092267;28;20215;-73
2022/07/01 12:50:19;;;;;;;0.68;0.68;;;17.80;99.90;;;;;;5093491;28;20695;-73
2022/07/01 12:53:09;;;;;;;0.60;0.60;;;17.90;99.90;;;;;;5093051;28;20203;-74
2022/07/01 12:56:00;;;;;;;1.30;1.20;;;17.80;99.90;;;;;;5086173;28;20208;-76
2022/07/01 12:58:52;;;;;;;0.63;0.63;;;18.00;99.90;;;;;;5072615;28;20205;-74
2022/07/01 13:01:40;;;;;;;2.25;1.75;;;18.00;99.90;;;;;;5071628;28;20216;-74
2022/07/01 13:04:29;;;;;;;0.50;0.50;;;17.90;99.90;;;;;;5072442;28;20196;-73
2022/07/01 13:07:18;;;;;;;1.30;1.20;;;17.60;99.90;;;;;;5072997;28;20749;-72
2022/07/01 13:10:07;;;;;;;0.77;0.77;;;17.40;99.90;;;;;;5074066;28;20211;-74
2022/07/01 13:12:56;;;;;;;1.33;1.23;;;17.20;99.90;;;;;;5073228;28;20452;-75
2022/07/01 13:15:46;;;;;;;0.52;0.52;;;17.10;99.90;;;;;;5073402;28;20200;-75
2022/07/01 13:18:34;;;;;;;0.40;0.40;;;17.20;99.90;;;;;;5073190;28;20216;-73
2022/07/01 13:21:22;;;;;;;1.50;1.25;;;17.20;99.90;;;;;;5074208;28;20243;-74
2022/07/01 13:24:10;;;;;;;0.60;0.55;;;17.20;99.90;;;;;;5073043;28;20204;-73
2022/07/01 13:27:18;;;;;;;0.85;0.85;;;17.50;99.90;;;;;;5072964;28;20278;-75
2022/07/01 13:30:09;;;;;;;0.47;0.47;;;17.50;99.90;;;;;;5073456;28;20197;-75
2022/07/01 13:32:59;;;;;;;0.40;0.40;;;17.30;99.90;;;;;;5072002;28;20212;-74
2022/07/01 13:35:47;;;;;;;0.93;0.93;;;17.20;99.90;;;;;;5073337;28;20207;-77
2022/07/01 13:38:36;;;;;;;1.10;1.10;;;17.10;99.90;;;;;;5073256;28;20196;-74
2022/07/01 13:41:24;;;;;;;0.50;0.50;;;17.10;99.90;;;;;;5072302;28;20209;-73
2022/07/01 13:44:12;;;;;;;0.47;0.47;;;17.00;99.90;;;;;;5077222;28;20810;-75
2022/07/01 13:47:01;;;;;;;0.57;0.57;;;17.10;99.90;;;;;;5076730;28;20196;-73
2022/07/01 13:49:51;;;;;;;0.45;0.45;;;17.10;99.90;;;;;;5094432;28;20204;-73
2022/07/01 13:52:39;;;;;;;0.73;0.73;;;17.00;99.90;;;;;;5094192;28;20630;-75
2022/07/01 13:55:34;;;;;;;0.93;0.73;;;17.00;99.90;;;;;;5102313;28;20200;-75
2022/07/01 13:58:22;;;;;;;1.45;1.33;;;16.90;99.90;;;;;;5081818;28;20203;-76
2022/07/01 14:01:10;;;;;;;0.70;0.60;;;16.80;99.90;;;;;;5074222;28;20269;-74
2022/07/01 14:03:58;;;;;;;0.85;0.85;;;16.80;99.90;;;;;;5072878;28;20193;-76
2022/07/01 14:06:48;;;;;;;0.50;0.50;;;16.80;99.90;;;;;;5074464;28;20209;-73
2022/07/01 14:09:36;;;;;;;0.70;0.60;;;16.80;99.90;;;;;;5073613;28;20338;-75
2022/07/01 14:12:25;;;;;;;0.67;0.67;;;16.80;99.90;;;;;;5072695;28;20598;-74
2022/07/01 14:15:15;;;;;;;2.40;1.77;;;16.80;99.90;;;;;;5071993;28;20197;-74
2022/07/01 14:18:04;;;;;;;0.40;0.40;;;16.70;99.90;;;;;;5073382;28;20212;-74
2022/07/01 14:20:52;;;;;;;0.90;0.90;;;16.70;99.90;;;;;;5071903;28;20220;-76
2022/07/01 14:23:41;;;;;;;0.68;0.68;;;16.70;99.90;;;;;;5074096;28;20242;-75
2022/07/01 14:26:30;;;;;;;0.70;0.70;;;16.60;99.90;;;;;;5073019;28;20205;-74
2022/07/01 14:29:18;;;;;;;0.63;0.63;;;16.60;99.90;;;;;;5072299;28;20700;-73
2022/07/01 14:32:07;;;;;;;0.70;0.70;;;16.60;99.90;;;;;;5072608;28;20724;-75
2022/07/01 14:34:57;;;;;;;2.10;1.13;;;16.60;99.90;;;;;;5072448;28;20201;-74
2022/07/01 14:37:45;;;;;;;0.83;0.83;;;16.60;99.90;;;;;;5072658;28;20211;-75
2022/07/01 14:40:36;;;;;;;0.97;0.97;;;16.70;99.90;;;;;;5073906;28;20571;-77
2022/07/01 14:43:24;;;;;;;0.60;0.60;;;16.80;99.90;;;;;;5082730;28;20214;-76
2022/07/01 14:46:14;;;;;;;1.33;0.80;;;16.80;99.90;;;;;;5095550;28;20204;-76
2022/07/01 14:49:02;;;;;;;0.70;0.70;;;16.90;99.90;;;;;;5096878;28;20208;-74
2022/07/01 14:51:51;;;;;;;1.40;1.10;;;17.00;99.90;;;;;;5109767;28;20223;-72
2022/07/01 14:54:39;;;;;;;0.88;0.88;;;17.10;99.90;;;;;;5116072;28;20204;-76
2022/07/01 14:57:30;;;;;;;1.58;1.08;;;17.20;99.90;;;;;;5103348;28;20243;-74
2022/07/01 15:00:19;;;;;;;2.67;0.97;;;17.30;99.90;;;;;;5090498;28;20227;-73